sensor_id;sensor_type;location;lat;lon;timestamp;P1;durP1;ratioP1;P2;durP2;ratioP2
74344;SDS011;62776;50.518;6.732;2023-02-03T00:01:58;3.25;;;2.42;;
74344;SDS011;62776;50.518;6.732;2023-02-03T00:04:54;4.63;;;2.63;;
74344;SDS011;62776;50.518;6.732;2023-02-03T00:07:43;4.25;;;2.63;;
74344;SDS011;62776;50.518;6.732;2023-02-03T00:10:48;4.47;;;2.55;;
74344;SDS011;62776;50.518;6.732;2023-02-03T00:13:44;3.67;;;2.42;;
74344;SDS011;62776;50.518;6.732;2023-02-03T00:16:33;3.78;;;2.55;;
74344;SDS011;62776;50.518;6.732;2023-02-03T00:19:23;3.40;;;2.20;;
74344;SDS011;62776;50.518;6.732;2023-02-03T00:22:16;4.93;;;2.88;;
74344;SDS011;62776;50.518;6.732;2023-02-03T00:25:06;3.28;;;2.40;;
74344;SDS011;62776;50.518;6.732;2023-02-03T00:27:53;4.13;;;2.42;;
74344;SDS011;62776;50.518;6.732;2023-02-03T00:30:44;4.30;;;2.33;;
74344;SDS011;62776;50.518;6.732;2023-02-03T00:33:38;7.80;;;3.05;;
74344;SDS011;62776;50.518;6.732;2023-02-03T00:36:40;3.13;;;2.08;;
74344;SDS011;62776;50.518;6.732;2023-02-03T00:39:26;3.08;;;2.28;;
74344;SDS011;62776;50.518;6.732;2023-02-03T00:42:23;4.47;;;2.10;;
74344;SDS011;62776;50.518;6.732;2023-02-03T00:45:24;4.20;;;2.47;;
74344;SDS011;62776;50.518;6.732;2023-02-03T00:48:14;3.90;;;2.20;;
74344;SDS011;62776;50.518;6.732;2023-02-03T00:51:06;3.95;;;2.63;;
74344;SDS011;62776;50.518;6.732;2023-02-03T00:53:55;2.45;;;2.13;;
74344;SDS011;62776;50.518;6.732;2023-02-03T00:56:42;3.05;;;2.20;;
74344;SDS011;62776;50.518;6.732;2023-02-03T00:59:48;3.13;;;2.17;;
74344;SDS011;62776;50.518;6.732;2023-02-03T01:02:41;3.78;;;2.38;;
74344;SDS011;62776;50.518;6.732;2023-02-03T01:05:34;3.25;;;2.03;;
74344;SDS011;62776;50.518;6.732;2023-02-03T01:08:26;3.70;;;2.15;;
74344;SDS011;62776;50.518;6.732;2023-02-03T01:11:13;1.98;;;1.70;;
74344;SDS011;62776;50.518;6.732;2023-02-03T01:14:02;3.70;;;1.98;;
74344;SDS011;62776;50.518;6.732;2023-02-03T01:17:00;3.47;;;2.00;;
74344;SDS011;62776;50.518;6.732;2023-02-03T01:19:47;4.88;;;2.10;;
74344;SDS011;62776;50.518;6.732;2023-02-03T01:22:42;2.92;;;1.88;;
74344;SDS011;62776;50.518;6.732;2023-02-03T01:25:33;3.53;;;2.05;;
74344;SDS011;62776;50.518;6.732;2023-02-03T01:28:20;3.30;;;1.70;;
74344;SDS011;62776;50.518;6.732;2023-02-03T01:31:07;2.28;;;1.70;;
74344;SDS011;62776;50.518;6.732;2023-02-03T01:34:01;2.90;;;1.70;;
74344;SDS011;62776;50.518;6.732;2023-02-03T01:36:48;3.50;;;1.90;;
74344;SDS011;62776;50.518;6.732;2023-02-03T01:39:34;3.33;;;1.60;;
74344;SDS011;62776;50.518;6.732;2023-02-03T01:42:20;3.67;;;1.85;;
74344;SDS011;62776;50.518;6.732;2023-02-03T01:45:09;1.98;;;1.40;;
74344;SDS011;62776;50.518;6.732;2023-02-03T01:48:05;2.92;;;1.70;;
74344;SDS011;62776;50.518;6.732;2023-02-03T01:51:02;1.67;;;1.35;;
74344;SDS011;62776;50.518;6.732;2023-02-03T01:53:51;1.58;;;1.48;;
74344;SDS011;62776;50.518;6.732;2023-02-03T01:56:43;2.85;;;1.58;;
74344;SDS011;62776;50.518;6.732;2023-02-03T01:59:41;2.80;;;1.60;;
74344;SDS011;62776;50.518;6.732;2023-02-03T02:02:29;4.20;;;1.85;;
74344;SDS011;62776;50.518;6.732;2023-02-03T02:05:31;3.90;;;1.80;;
74344;SDS011;62776;50.518;6.732;2023-02-03T02:08:41;4.30;;;1.50;;
74344;SDS011;62776;50.518;6.732;2023-02-03T02:11:35;1.88;;;1.70;;
74344;SDS011;62776;50.518;6.732;2023-02-03T02:14:21;3.05;;;1.58;;
74344;SDS011;62776;50.518;6.732;2023-02-03T02:20:29;2.70;;;1.48;;
74344;SDS011;62776;50.518;6.732;2023-02-03T02:23:47;3.50;;;1.88;;
74344;SDS011;62776;50.518;6.732;2023-02-03T02:39:14;1.92;;;1.73;;
74344;SDS011;62776;50.518;6.732;2023-02-03T02:42:21;2.03;;;1.80;;
74344;SDS011;62776;50.518;6.732;2023-02-03T02:45:15;2.75;;;1.80;;
74344;SDS011;62776;50.518;6.732;2023-02-03T02:48:55;3.05;;;1.98;;
74344;SDS011;62776;50.518;6.732;2023-02-03T02:51:22;3.72;;;2.08;;
74344;SDS011;62776;50.518;6.732;2023-02-03T02:54:32;2.80;;;1.83;;
74344;SDS011;62776;50.518;6.732;2023-02-03T02:57:22;3.08;;;2.08;;
74344;SDS011;62776;50.518;6.732;2023-02-03T03:00:14;2.90;;;2.35;;
74344;SDS011;62776;50.518;6.732;2023-02-03T03:03:14;2.50;;;1.90;;
74344;SDS011;62776;50.518;6.732;2023-02-03T03:06:15;2.00;;;1.80;;
74344;SDS011;62776;50.518;6.732;2023-02-03T03:09:14;3.47;;;1.98;;
74344;SDS011;62776;50.518;6.732;2023-02-03T03:12:22;5.53;;;2.10;;
74344;SDS011;62776;50.518;6.732;2023-02-03T03:15:19;4.57;;;1.63;;
74344;SDS011;62776;50.518;6.732;2023-02-03T03:18:12;2.13;;;1.80;;
74344;SDS011;62776;50.518;6.732;2023-02-03T03:21:05;1.83;;;1.70;;
74344;SDS011;62776;50.518;6.732;2023-02-03T03:23:56;3.72;;;1.98;;
74344;SDS011;62776;50.518;6.732;2023-02-03T03:30:00;2.70;;;1.58;;
74344;SDS011;62776;50.518;6.732;2023-02-03T03:32:56;4.03;;;2.20;;
74344;SDS011;62776;50.518;6.732;2023-02-03T03:36:00;2.85;;;1.83;;
74344;SDS011;62776;50.518;6.732;2023-02-03T03:39:08;2.70;;;1.50;;
74344;SDS011;62776;50.518;6.732;2023-02-03T03:51:48;2.42;;;2.00;;
74344;SDS011;62776;50.518;6.732;2023-02-03T03:54:52;2.83;;;2.03;;
74344;SDS011;62776;50.518;6.732;2023-02-03T03:58:03;2.25;;;1.67;;
74344;SDS011;62776;50.518;6.732;2023-02-03T04:01:00;2.58;;;1.80;;
74344;SDS011;62776;50.518;6.732;2023-02-03T04:03:56;3.08;;;1.50;;
74344;SDS011;62776;50.518;6.732;2023-02-03T04:06:55;3.60;;;2.08;;
74344;SDS011;62776;50.518;6.732;2023-02-03T04:09:44;2.08;;;1.80;;
74344;SDS011;62776;50.518;6.732;2023-02-03T04:12:31;2.63;;;1.70;;
74344;SDS011;62776;50.518;6.732;2023-02-03T04:15:18;1.92;;;1.55;;
74344;SDS011;62776;50.518;6.732;2023-02-03T04:18:13;3.47;;;2.00;;
74344;SDS011;62776;50.518;6.732;2023-02-03T04:21:13;3.25;;;1.80;;
74344;SDS011;62776;50.518;6.732;2023-02-03T04:24:02;2.73;;;1.80;;
74344;SDS011;62776;50.518;6.732;2023-02-03T04:26:49;2.25;;;1.50;;
74344;SDS011;62776;50.518;6.732;2023-02-03T04:29:38;3.60;;;1.83;;
74344;SDS011;62776;50.518;6.732;2023-02-03T04:32:39;3.70;;;2.20;;
74344;SDS011;62776;50.518;6.732;2023-02-03T04:35:29;3.20;;;2.17;;
74344;SDS011;62776;50.518;6.732;2023-02-03T04:38:21;4.45;;;2.50;;
74344;SDS011;62776;50.518;6.732;2023-02-03T04:41:11;4.63;;;2.33;;
74344;SDS011;62776;50.518;6.732;2023-02-03T04:44:01;3.42;;;1.70;;
74344;SDS011;62776;50.518;6.732;2023-02-03T04:46:49;2.92;;;1.80;;
74344;SDS011;62776;50.518;6.732;2023-02-03T04:49:46;3.42;;;1.98;;
74344;SDS011;62776;50.518;6.732;2023-02-03T04:52:33;5.00;;;2.55;;
74344;SDS011;62776;50.518;6.732;2023-02-03T04:55:19;3.05;;;1.65;;
74344;SDS011;62776;50.518;6.732;2023-02-03T04:58:05;2.60;;;1.50;;
74344;SDS011;62776;50.518;6.732;2023-02-03T05:00:53;1.60;;;1.15;;
74344;SDS011;62776;50.518;6.732;2023-02-03T05:03:44;3.77;;;1.70;;
74344;SDS011;62776;50.518;6.732;2023-02-03T05:06:40;3.17;;;1.63;;
74344;SDS011;62776;50.518;6.732;2023-02-03T05:09:27;3.53;;;1.70;;
74344;SDS011;62776;50.518;6.732;2023-02-03T05:12:13;2.60;;;1.58;;
74344;SDS011;62776;50.518;6.732;2023-02-03T05:15:02;3.22;;;1.48;;
74344;SDS011;62776;50.518;6.732;2023-02-03T05:17:53;2.75;;;1.50;;
74344;SDS011;62776;50.518;6.732;2023-02-03T05:20:42;1.88;;;1.67;;
74344;SDS011;62776;50.518;6.732;2023-02-03T05:23:28;3.25;;;1.92;;
74344;SDS011;62776;50.518;6.732;2023-02-03T05:26:15;5.13;;;1.63;;
74344;SDS011;62776;50.518;6.732;2023-02-03T05:29:15;3.72;;;1.55;;
74344;SDS011;62776;50.518;6.732;2023-02-03T05:32:06;2.13;;;1.58;;
74344;SDS011;62776;50.518;6.732;2023-02-03T05:34:52;2.75;;;2.15;;
74344;SDS011;62776;50.518;6.732;2023-02-03T05:37:39;3.10;;;1.38;;
74344;SDS011;62776;50.518;6.732;2023-02-03T05:40:28;2.45;;;1.70;;
74344;SDS011;62776;50.518;6.732;2023-02-03T05:43:33;3.00;;;1.50;;
74344;SDS011;62776;50.518;6.732;2023-02-03T05:46:23;2.58;;;1.02;;
74344;SDS011;62776;50.518;6.732;2023-02-03T05:49:18;3.35;;;1.88;;
74344;SDS011;62776;50.518;6.732;2023-02-03T05:52:08;2.08;;;1.10;;
74344;SDS011;62776;50.518;6.732;2023-02-03T05:54:57;4.75;;;1.52;;
74344;SDS011;62776;50.518;6.732;2023-02-03T05:57:47;3.53;;;2.20;;
74344;SDS011;62776;50.518;6.732;2023-02-03T06:00:36;2.80;;;1.70;;
74344;SDS011;62776;50.518;6.732;2023-02-03T06:03:23;2.65;;;1.67;;
74344;SDS011;62776;50.518;6.732;2023-02-03T06:06:20;3.28;;;1.70;;
74344;SDS011;62776;50.518;6.732;2023-02-03T06:09:27;3.10;;;1.33;;
74344;SDS011;62776;50.518;6.732;2023-02-03T06:12:19;2.35;;;1.60;;
74344;SDS011;62776;50.518;6.732;2023-02-03T06:15:17;3.13;;;1.35;;
74344;SDS011;62776;50.518;6.732;2023-02-03T06:18:09;2.65;;;1.40;;
74344;SDS011;62776;50.518;6.732;2023-02-03T06:21:00;2.63;;;1.27;;
74344;SDS011;62776;50.518;6.732;2023-02-03T06:23:58;2.28;;;1.20;;
74344;SDS011;62776;50.518;6.732;2023-02-03T06:26:44;4.20;;;1.50;;
74344;SDS011;62776;50.518;6.732;2023-02-03T06:29:31;1.90;;;1.67;;
74344;SDS011;62776;50.518;6.732;2023-02-03T06:32:20;2.75;;;1.55;;
74344;SDS011;62776;50.518;6.732;2023-02-03T06:35:06;4.15;;;1.83;;
74344;SDS011;62776;50.518;6.732;2023-02-03T06:37:59;2.80;;;1.42;;
74344;SDS011;62776;50.518;6.732;2023-02-03T06:40:48;1.92;;;1.30;;
74344;SDS011;62776;50.518;6.732;2023-02-03T06:43:35;2.33;;;1.67;;
74344;SDS011;62776;50.518;6.732;2023-02-03T06:46:21;4.70;;;1.75;;
74344;SDS011;62776;50.518;6.732;2023-02-03T06:49:20;2.53;;;1.25;;
74344;SDS011;62776;50.518;6.732;2023-02-03T06:52:16;2.20;;;1.23;;
74344;SDS011;62776;50.518;6.732;2023-02-03T06:55:23;1.90;;;1.40;;
74344;SDS011;62776;50.518;6.732;2023-02-03T06:58:12;2.35;;;1.20;;
74344;SDS011;62776;50.518;6.732;2023-02-03T07:01:01;2.63;;;1.50;;
74344;SDS011;62776;50.518;6.732;2023-02-03T07:03:56;1.67;;;1.15;;
74344;SDS011;62776;50.518;6.732;2023-02-03T07:06:45;1.45;;;1.20;;
74344;SDS011;62776;50.518;6.732;2023-02-03T07:09:31;3.28;;;1.27;;
74344;SDS011;62776;50.518;6.732;2023-02-03T07:12:19;2.03;;;1.00;;
74344;SDS011;62776;50.518;6.732;2023-02-03T07:15:06;3.40;;;1.73;;
74344;SDS011;62776;50.518;6.732;2023-02-03T07:17:53;3.83;;;1.85;;
74344;SDS011;62776;50.518;6.732;2023-02-03T07:20:39;3.13;;;1.23;;
74344;SDS011;62776;50.518;6.732;2023-02-03T07:23:31;1.55;;;1.20;;
74344;SDS011;62776;50.518;6.732;2023-02-03T07:26:21;2.35;;;1.55;;
74344;SDS011;62776;50.518;6.732;2023-02-03T07:29:10;2.67;;;1.58;;
74344;SDS011;62776;50.518;6.732;2023-02-03T07:32:07;2.15;;;1.60;;
74344;SDS011;62776;50.518;6.732;2023-02-03T07:34:53;2.45;;;1.50;;
74344;SDS011;62776;50.518;6.732;2023-02-03T07:37:50;2.88;;;1.92;;
74344;SDS011;62776;50.518;6.732;2023-02-03T07:40:37;2.22;;;1.45;;
74344;SDS011;62776;50.518;6.732;2023-02-03T07:43:28;3.58;;;2.15;;
74344;SDS011;62776;50.518;6.732;2023-02-03T07:46:14;2.15;;;1.40;;
74344;SDS011;62776;50.518;6.732;2023-02-03T07:49:09;2.45;;;1.73;;
74344;SDS011;62776;50.518;6.732;2023-02-03T07:51:56;5.28;;;2.42;;
74344;SDS011;62776;50.518;6.732;2023-02-03T07:54:45;1.90;;;1.33;;
74344;SDS011;62776;50.518;6.732;2023-02-03T07:57:31;2.70;;;1.63;;
74344;SDS011;62776;50.518;6.732;2023-02-03T08:00:21;3.35;;;2.83;;
74344;SDS011;62776;50.518;6.732;2023-02-03T08:03:07;4.93;;;1.40;;
74344;SDS011;62776;50.518;6.732;2023-02-03T08:06:03;3.42;;;1.70;;
74344;SDS011;62776;50.518;6.732;2023-02-03T08:08:50;1.27;;;1.15;;
74344;SDS011;62776;50.518;6.732;2023-02-03T08:11:38;4.00;;;1.73;;
74344;SDS011;62776;50.518;6.732;2023-02-03T08:14:24;3.53;;;1.67;;
74344;SDS011;62776;50.518;6.732;2023-02-03T08:17:10;2.60;;;1.58;;
74344;SDS011;62776;50.518;6.732;2023-02-03T08:19:57;3.25;;;1.70;;
74344;SDS011;62776;50.518;6.732;2023-02-03T08:22:48;4.28;;;1.50;;
74344;SDS011;62776;50.518;6.732;2023-02-03T08:25:38;2.78;;;1.63;;
74344;SDS011;62776;50.518;6.732;2023-02-03T08:28:24;2.17;;;1.60;;
74344;SDS011;62776;50.518;6.732;2023-02-03T08:31:11;2.10;;;1.13;;
74344;SDS011;62776;50.518;6.732;2023-02-03T08:34:09;4.30;;;1.45;;
74344;SDS011;62776;50.518;6.732;2023-02-03T08:36:55;2.42;;;1.33;;
74344;SDS011;62776;50.518;6.732;2023-02-03T08:39:44;8.98;;;2.03;;
74344;SDS011;62776;50.518;6.732;2023-02-03T08:42:31;2.75;;;1.40;;
74344;SDS011;62776;50.518;6.732;2023-02-03T08:45:20;3.00;;;1.33;;
74344;SDS011;62776;50.518;6.732;2023-02-03T08:48:12;2.45;;;1.25;;
74344;SDS011;62776;50.518;6.732;2023-02-03T08:51:07;5.15;;;1.63;;
74344;SDS011;62776;50.518;6.732;2023-02-03T08:53:58;2.25;;;1.60;;
74344;SDS011;62776;50.518;6.732;2023-02-03T08:56:49;2.58;;;1.55;;
74344;SDS011;62776;50.518;6.732;2023-02-03T08:59:39;2.10;;;1.35;;
74344;SDS011;62776;50.518;6.732;2023-02-03T09:02:27;3.63;;;1.48;;
74344;SDS011;62776;50.518;6.732;2023-02-03T09:05:13;2.33;;;1.40;;
74344;SDS011;62776;50.518;6.732;2023-02-03T09:08:02;2.90;;;1.52;;
74344;SDS011;62776;50.518;6.732;2023-02-03T09:11:07;2.55;;;1.20;;
74344;SDS011;62776;50.518;6.732;2023-02-03T09:13:56;1.80;;;1.30;;
74344;SDS011;62776;50.518;6.732;2023-02-03T09:16:43;2.38;;;1.38;;
74344;SDS011;62776;50.518;6.732;2023-02-03T09:19:29;1.77;;;1.20;;
74344;SDS011;62776;50.518;6.732;2023-02-03T09:22:19;2.42;;;1.23;;
74344;SDS011;62776;50.518;6.732;2023-02-03T09:25:11;2.47;;;1.25;;
74344;SDS011;62776;50.518;6.732;2023-02-03T09:28:00;2.05;;;1.25;;
74344;SDS011;62776;50.518;6.732;2023-02-03T09:30:49;2.85;;;1.65;;
74344;SDS011;62776;50.518;6.732;2023-02-03T09:33:38;2.50;;;1.20;;
74344;SDS011;62776;50.518;6.732;2023-02-03T09:36:28;2.60;;;1.48;;
74344;SDS011;62776;50.518;6.732;2023-02-03T09:39:14;3.95;;;1.42;;
74344;SDS011;62776;50.518;6.732;2023-02-03T09:45:23;2.70;;;1.90;;
74344;SDS011;62776;50.518;6.732;2023-02-03T09:48:23;2.00;;;1.55;;
74344;SDS011;62776;50.518;6.732;2023-02-03T09:54:44;3.28;;;1.90;;
74344;SDS011;62776;50.518;6.732;2023-02-03T09:57:36;3.33;;;1.42;;
74344;SDS011;62776;50.518;6.732;2023-02-03T10:00:34;4.32;;;1.85;;
74344;SDS011;62776;50.518;6.732;2023-02-03T10:06:37;3.67;;;1.75;;
74344;SDS011;62776;50.518;6.732;2023-02-03T10:12:58;3.72;;;2.90;;
74344;SDS011;62776;50.518;6.732;2023-02-03T10:16:06;3.60;;;1.60;;
74344;SDS011;62776;50.518;6.732;2023-02-03T10:19:10;3.83;;;1.45;;
74344;SDS011;62776;50.518;6.732;2023-02-03T10:22:04;1.65;;;1.25;;
74344;SDS011;62776;50.518;6.732;2023-02-03T10:25:58;5.78;;;2.70;;
74344;SDS011;62776;50.518;6.732;2023-02-03T10:28:31;2.53;;;1.63;;
74344;SDS011;62776;50.518;6.732;2023-02-03T10:31:27;1.75;;;1.38;;
74344;SDS011;62776;50.518;6.732;2023-02-03T10:37:21;2.97;;;1.70;;
74344;SDS011;62776;50.518;6.732;2023-02-03T10:40:15;1.80;;;1.55;;
74344;SDS011;62776;50.518;6.732;2023-02-03T10:43:14;1.98;;;1.20;;
74344;SDS011;62776;50.518;6.732;2023-02-03T10:46:26;2.05;;;1.23;;
74344;SDS011;62776;50.518;6.732;2023-02-03T10:49:14;2.80;;;1.67;;
74344;SDS011;62776;50.518;6.732;2023-02-03T10:52:05;1.55;;;1.23;;
74344;SDS011;62776;50.518;6.732;2023-02-03T10:55:29;1.70;;;1.50;;
74344;SDS011;62776;50.518;6.732;2023-02-03T10:58:27;1.60;;;1.50;;
74344;SDS011;62776;50.518;6.732;2023-02-03T11:01:19;1.50;;;1.40;;
74344;SDS011;62776;50.518;6.732;2023-02-03T11:07:30;2.08;;;1.48;;
74344;SDS011;62776;50.518;6.732;2023-02-03T11:13:46;1.50;;;1.40;;
74344;SDS011;62776;50.518;6.732;2023-02-03T11:16:42;2.47;;;1.60;;
74344;SDS011;62776;50.518;6.732;2023-02-03T11:19:44;2.42;;;1.50;;
74344;SDS011;62776;50.518;6.732;2023-02-03T11:22:50;1.75;;;1.65;;
74344;SDS011;62776;50.518;6.732;2023-02-03T11:25:39;2.37;;;1.77;;
74344;SDS011;62776;50.518;6.732;2023-02-03T11:28:26;1.70;;;1.42;;
74344;SDS011;62776;50.518;6.732;2023-02-03T11:31:15;1.90;;;1.70;;
74344;SDS011;62776;50.518;6.732;2023-02-03T11:34:18;3.42;;;1.60;;
74344;SDS011;62776;50.518;6.732;2023-02-03T11:37:26;1.73;;;1.20;;
74344;SDS011;62776;50.518;6.732;2023-02-03T11:40:21;0.85;;;0.85;;
74344;SDS011;62776;50.518;6.732;2023-02-03T11:43:35;1.20;;;1.10;;
74344;SDS011;62776;50.518;6.732;2023-02-03T11:46:35;1.42;;;1.25;;
74344;SDS011;62776;50.518;6.732;2023-02-03T11:49:45;1.33;;;1.23;;
74344;SDS011;62776;50.518;6.732;2023-02-03T11:53:01;1.00;;;1.00;;
74344;SDS011;62776;50.518;6.732;2023-02-03T11:59:21;1.00;;;0.93;;
74344;SDS011;62776;50.518;6.732;2023-02-03T12:08:50;1.13;;;1.08;;
74344;SDS011;62776;50.518;6.732;2023-02-03T12:18:44;0.85;;;0.70;;
74344;SDS011;62776;50.518;6.732;2023-02-03T12:24:32;1.08;;;0.98;;
74344;SDS011;62776;50.518;6.732;2023-02-03T12:27:40;1.48;;;1.10;;
74344;SDS011;62776;50.518;6.732;2023-02-03T12:30:50;1.02;;;1.02;;
74344;SDS011;62776;50.518;6.732;2023-02-03T12:33:49;1.00;;;1.00;;
74344;SDS011;62776;50.518;6.732;2023-02-03T12:36:49;1.17;;;1.08;;
74344;SDS011;62776;50.518;6.732;2023-02-03T12:39:42;1.17;;;1.08;;
74344;SDS011;62776;50.518;6.732;2023-02-03T12:42:40;1.50;;;1.40;;
74344;SDS011;62776;50.518;6.732;2023-02-03T12:45:35;1.48;;;1.38;;
74344;SDS011;62776;50.518;6.732;2023-02-03T12:48:25;1.90;;;1.60;;
74344;SDS011;62776;50.518;6.732;2023-02-03T12:58:13;1.40;;;1.30;;
74344;SDS011;62776;50.518;6.732;2023-02-03T13:01:21;1.83;;;1.73;;
74344;SDS011;62776;50.518;6.732;2023-02-03T13:07:32;2.53;;;1.52;;
74344;SDS011;62776;50.518;6.732;2023-02-03T13:10:30;1.60;;;1.50;;
74344;SDS011;62776;50.518;6.732;2023-02-03T13:13:36;1.30;;;1.20;;
74344;SDS011;62776;50.518;6.732;2023-02-03T13:16:53;1.88;;;1.48;;
74344;SDS011;62776;50.518;6.732;2023-02-03T13:20:32;1.33;;;1.30;;
74344;SDS011;62776;50.518;6.732;2023-02-03T13:23:20;1.30;;;1.20;;
74344;SDS011;62776;50.518;6.732;2023-02-03T13:32:12;1.60;;;1.50;;
74344;SDS011;62776;50.518;6.732;2023-02-03T13:39:18;1.90;;;1.73;;
74344;SDS011;62776;50.518;6.732;2023-02-03T13:42:07;3.47;;;2.20;;
74344;SDS011;62776;50.518;6.732;2023-02-03T13:48:16;2.92;;;2.72;;
74344;SDS011;62776;50.518;6.732;2023-02-03T13:51:13;4.45;;;2.60;;
74344;SDS011;62776;50.518;6.732;2023-02-03T13:54:03;2.78;;;2.58;;
74344;SDS011;62776;50.518;6.732;2023-02-03T13:57:02;2.85;;;2.65;;
74344;SDS011;62776;50.518;6.732;2023-02-03T13:59:54;3.70;;;3.40;;
74344;SDS011;62776;50.518;6.732;2023-02-03T14:02:53;2.72;;;2.50;;
74344;SDS011;62776;50.518;6.732;2023-02-03T14:05:53;3.13;;;2.83;;
74344;SDS011;62776;50.518;6.732;2023-02-03T14:08:45;3.78;;;3.38;;
74344;SDS011;62776;50.518;6.732;2023-02-03T14:23:22;4.05;;;2.88;;
74344;SDS011;62776;50.518;6.732;2023-02-03T14:26:32;2.72;;;2.53;;
74344;SDS011;62776;50.518;6.732;2023-02-03T14:29:26;3.17;;;2.85;;
74344;SDS011;62776;50.518;6.732;2023-02-03T14:32:19;3.30;;;2.60;;
74344;SDS011;62776;50.518;6.732;2023-02-03T14:35:18;3.67;;;3.38;;
74344;SDS011;62776;50.518;6.732;2023-02-03T14:38:14;3.35;;;3.13;;
74344;SDS011;62776;50.518;6.732;2023-02-03T14:41:01;3.40;;;3.10;;
74344;SDS011;62776;50.518;6.732;2023-02-03T14:47:18;3.80;;;3.50;;
74344;SDS011;62776;50.518;6.732;2023-02-03T14:50:25;3.35;;;3.05;;
74344;SDS011;62776;50.518;6.732;2023-02-03T14:56:43;3.55;;;3.25;;
74344;SDS011;62776;50.518;6.732;2023-02-03T15:06:04;4.18;;;3.78;;
74344;SDS011;62776;50.518;6.732;2023-02-03T15:08:50;3.40;;;3.10;;
74344;SDS011;62776;50.518;6.732;2023-02-03T15:11:43;4.30;;;3.90;;
74344;SDS011;62776;50.518;6.732;2023-02-03T15:14:31;3.95;;;3.65;;
74344;SDS011;62776;50.518;6.732;2023-02-03T15:17:27;3.63;;;3.33;;
74344;SDS011;62776;50.518;6.732;2023-02-03T15:20:34;4.13;;;3.83;;
74344;SDS011;62776;50.518;6.732;2023-02-03T15:23:41;3.58;;;3.30;;
74344;SDS011;62776;50.518;6.732;2023-02-03T15:26:43;4.07;;;3.70;;
74344;SDS011;62776;50.518;6.732;2023-02-03T15:29:37;3.85;;;3.60;;
74344;SDS011;62776;50.518;6.732;2023-02-03T15:32:37;3.92;;;3.63;;
74344;SDS011;62776;50.518;6.732;2023-02-03T15:35:40;3.38;;;3.10;;
74344;SDS011;62776;50.518;6.732;2023-02-03T15:38:28;3.63;;;3.33;;
74344;SDS011;62776;50.518;6.732;2023-02-03T15:41:46;3.53;;;3.22;;
74344;SDS011;62776;50.518;6.732;2023-02-03T15:45:39;3.50;;;3.20;;
74344;SDS011;62776;50.518;6.732;2023-02-03T15:48:05;3.07;;;2.87;;
74344;SDS011;62776;50.518;6.732;2023-02-03T15:51:02;4.00;;;3.65;;
74344;SDS011;62776;50.518;6.732;2023-02-03T15:54:12;3.80;;;3.50;;
74344;SDS011;62776;50.518;6.732;2023-02-03T15:57:08;4.60;;;4.20;;
74344;SDS011;62776;50.518;6.732;2023-02-03T16:03:17;4.13;;;3.83;;
74344;SDS011;62776;50.518;6.732;2023-02-03T16:06:23;4.38;;;3.97;;
74344;SDS011;62776;50.518;6.732;2023-02-03T16:12:24;5.18;;;4.32;;
74344;SDS011;62776;50.518;6.732;2023-02-03T16:15:23;3.83;;;3.53;;
74344;SDS011;62776;50.518;6.732;2023-02-03T16:18:14;3.47;;;3.17;;
74344;SDS011;62776;50.518;6.732;2023-02-03T16:21:20;3.70;;;3.40;;
74344;SDS011;62776;50.518;6.732;2023-02-03T16:33:17;3.75;;;3.45;;
74344;SDS011;62776;50.518;6.732;2023-02-03T16:36:25;4.43;;;3.70;;
74344;SDS011;62776;50.518;6.732;2023-02-03T16:39:33;5.13;;;4.32;;
74344;SDS011;62776;50.518;6.732;2023-02-03T16:42:38;4.95;;;4.45;;
74344;SDS011;62776;50.518;6.732;2023-02-03T16:45:50;5.45;;;4.90;;
74344;SDS011;62776;50.518;6.732;2023-02-03T16:49:01;5.03;;;4.47;;
74344;SDS011;62776;50.518;6.732;2023-02-03T16:52:06;8.82;;;5.00;;
74344;SDS011;62776;50.518;6.732;2023-02-03T16:54:55;6.57;;;4.78;;
74344;SDS011;62776;50.518;6.732;2023-02-03T17:09:13;4.30;;;3.90;;
74344;SDS011;62776;50.518;6.732;2023-02-03T17:12:09;5.30;;;4.35;;
74344;SDS011;62776;50.518;6.732;2023-02-03T17:14:55;5.45;;;3.55;;
74344;SDS011;62776;50.518;6.732;2023-02-03T17:17:42;4.38;;;3.97;;
74344;SDS011;62776;50.518;6.732;2023-02-03T17:20:30;6.00;;;4.35;;
74344;SDS011;62776;50.518;6.732;2023-02-03T17:23:21;5.10;;;4.25;;
74344;SDS011;62776;50.518;6.732;2023-02-03T17:26:15;5.80;;;4.80;;
74344;SDS011;62776;50.518;6.732;2023-02-03T17:29:08;5.90;;;4.28;;
74344;SDS011;62776;50.518;6.732;2023-02-03T17:31:54;5.88;;;4.28;;
74344;SDS011;62776;50.518;6.732;2023-02-03T17:34:43;4.10;;;3.70;;
74344;SDS011;62776;50.518;6.732;2023-02-03T17:37:33;7.18;;;4.50;;
74344;SDS011;62776;50.518;6.732;2023-02-03T17:40:20;6.70;;;5.18;;
74344;SDS011;62776;50.518;6.732;2023-02-03T17:43:06;4.57;;;4.05;;
74344;SDS011;62776;50.518;6.732;2023-02-03T17:45:53;5.80;;;4.20;;
74344;SDS011;62776;50.518;6.732;2023-02-03T17:48:46;5.25;;;4.13;;
74344;SDS011;62776;50.518;6.732;2023-02-03T17:51:42;5.22;;;4.13;;
74344;SDS011;62776;50.518;6.732;2023-02-03T17:54:31;6.03;;;3.80;;
74344;SDS011;62776;50.518;6.732;2023-02-03T17:57:20;6.55;;;4.45;;
74344;SDS011;62776;50.518;6.732;2023-02-03T18:00:12;8.15;;;4.93;;
74344;SDS011;62776;50.518;6.732;2023-02-03T18:02:58;7.78;;;4.25;;
74344;SDS011;62776;50.518;6.732;2023-02-03T18:05:51;6.00;;;3.88;;
74344;SDS011;62776;50.518;6.732;2023-02-03T18:08:40;6.88;;;4.07;;
74344;SDS011;62776;50.518;6.732;2023-02-03T18:11:30;5.10;;;4.60;;
74344;SDS011;62776;50.518;6.732;2023-02-03T18:14:18;7.00;;;4.30;;
74344;SDS011;62776;50.518;6.732;2023-02-03T18:17:10;6.80;;;4.68;;
74344;SDS011;62776;50.518;6.732;2023-02-03T18:19:59;5.95;;;4.50;;
74344;SDS011;62776;50.518;6.732;2023-02-03T18:22:47;8.30;;;4.88;;
74344;SDS011;62776;50.518;6.732;2023-02-03T18:25:34;5.65;;;4.40;;
74344;SDS011;62776;50.518;6.732;2023-02-03T18:28:32;6.43;;;4.50;;
74344;SDS011;62776;50.518;6.732;2023-02-03T18:31:19;5.10;;;4.53;;
74344;SDS011;62776;50.518;6.732;2023-02-03T18:34:15;6.57;;;4.57;;
74344;SDS011;62776;50.518;6.732;2023-02-03T18:37:10;5.03;;;4.38;;
74344;SDS011;62776;50.518;6.732;2023-02-03T18:40:01;6.25;;;4.95;;
74344;SDS011;62776;50.518;6.732;2023-02-03T18:42:52;5.70;;;5.00;;
74344;SDS011;62776;50.518;6.732;2023-02-03T18:45:42;7.57;;;5.32;;
74344;SDS011;62776;50.518;6.732;2023-02-03T18:48:29;6.85;;;5.55;;
74344;SDS011;62776;50.518;6.732;2023-02-03T18:51:20;7.05;;;5.82;;
74344;SDS011;62776;50.518;6.732;2023-02-03T18:54:08;6.10;;;5.38;;
74344;SDS011;62776;50.518;6.732;2023-02-03T18:56:57;8.95;;;6.05;;
74344;SDS011;62776;50.518;6.732;2023-02-03T18:59:46;10.32;;;6.50;;
74344;SDS011;62776;50.518;6.732;2023-02-03T19:02:35;7.15;;;5.35;;
74344;SDS011;62776;50.518;6.732;2023-02-03T19:05:30;5.57;;;4.78;;
74344;SDS011;62776;50.518;6.732;2023-02-03T19:08:19;8.00;;;6.05;;
74344;SDS011;62776;50.518;6.732;2023-02-03T19:11:06;9.85;;;6.20;;
74344;SDS011;62776;50.518;6.732;2023-02-03T19:14:03;6.30;;;5.35;;
74344;SDS011;62776;50.518;6.732;2023-02-03T19:16:56;6.47;;;5.13;;
74344;SDS011;62776;50.518;6.732;2023-02-03T19:19:42;7.40;;;5.60;;
74344;SDS011;62776;50.518;6.732;2023-02-03T19:22:31;7.55;;;5.93;;
74344;SDS011;62776;50.518;6.732;2023-02-03T19:25:25;6.60;;;6.00;;
74344;SDS011;62776;50.518;6.732;2023-02-03T19:28:19;8.10;;;6.10;;
74344;SDS011;62776;50.518;6.732;2023-02-03T19:31:12;9.48;;;6.40;;
74344;SDS011;62776;50.518;6.732;2023-02-03T19:33:59;8.55;;;5.82;;
74344;SDS011;62776;50.518;6.732;2023-02-03T19:36:46;8.52;;;6.60;;
74344;SDS011;62776;50.518;6.732;2023-02-03T19:39:32;10.35;;;6.53;;
74344;SDS011;62776;50.518;6.732;2023-02-03T19:42:21;8.30;;;5.97;;
74344;SDS011;62776;50.518;6.732;2023-02-03T19:45:10;6.65;;;5.82;;
74344;SDS011;62776;50.518;6.732;2023-02-03T19:48:17;6.75;;;6.05;;
74344;SDS011;62776;50.518;6.732;2023-02-03T19:51:06;8.70;;;5.72;;
74344;SDS011;62776;50.518;6.732;2023-02-03T19:53:54;7.88;;;5.53;;
74344;SDS011;62776;50.518;6.732;2023-02-03T19:56:43;7.78;;;5.47;;